createdAt,value
2023-03-05T00:01:29.548Z,2.50
2023-03-05T00:04:05.395Z,2.40
2023-03-05T00:06:37.184Z,2.40
2023-03-05T00:09:09.089Z,2.40
2023-03-05T00:11:40.973Z,2.40
2023-03-05T00:14:13.421Z,2.40
2023-03-05T00:16:45.566Z,2.30
2023-03-05T00:19:17.268Z,2.30
2023-03-05T00:21:49.059Z,2.30
2023-03-05T00:24:20.807Z,2.30
2023-03-05T00:26:53.190Z,2.40
2023-03-05T00:29:25.071Z,2.60
2023-03-05T00:31:56.856Z,2.80
2023-03-05T00:34:29.681Z,2.90
2023-03-05T00:37:01.680Z,2.90
2023-03-05T00:39:33.657Z,3.00
2023-03-05T00:42:05.563Z,3.00
2023-03-05T00:44:37.359Z,3.00
2023-03-05T00:47:09.091Z,3.00
2023-03-05T00:49:40.899Z,3.00
2023-03-05T00:52:12.611Z,3.00
2023-03-05T00:54:44.415Z,2.90
2023-03-05T00:57:16.184Z,2.80
2023-03-05T00:59:48.078Z,2.70
2023-03-05T01:02:19.744Z,2.70
2023-03-05T01:04:51.558Z,2.60
2023-03-05T01:07:23.473Z,2.60
2023-03-05T01:09:55.200Z,2.70
2023-03-05T01:12:26.923Z,2.70
2023-03-05T01:14:58.613Z,2.80
2023-03-05T01:17:30.326Z,2.80
2023-03-05T01:20:02.256Z,2.80
2023-03-05T01:22:34.182Z,2.80
2023-03-05T01:25:06.214Z,2.80
2023-03-05T01:27:37.966Z,2.80
2023-03-05T01:30:10.688Z,2.80
2023-03-05T01:32:43.226Z,2.80
2023-03-05T01:35:22.277Z,2.80
2023-03-05T01:37:56.049Z,2.70
2023-03-05T01:40:30.148Z,2.70
2023-03-05T01:43:12.089Z,2.70
2023-03-05T01:46:21.760Z,2.70
2023-03-05T01:49:08.620Z,2.70
2023-03-05T01:51:55.068Z,2.70
2023-03-05T01:54:33.604Z,2.70
2023-03-05T01:57:10.826Z,2.70
2023-03-05T01:59:46.018Z,2.60
2023-03-05T02:02:18.814Z,2.50
2023-03-05T02:04:56.167Z,2.40
2023-03-05T02:07:29.065Z,2.40
2023-03-05T02:10:00.762Z,2.30
2023-03-05T02:12:32.468Z,2.30
2023-03-05T02:15:04.590Z,2.40
2023-03-05T02:17:36.320Z,2.60
2023-03-05T02:20:15.110Z,2.70
2023-03-05T02:22:47.277Z,2.60
2023-03-05T02:25:28.711Z,2.60
2023-03-05T02:28:14.962Z,2.50
2023-03-05T02:30:46.860Z,2.40
2023-03-05T02:33:20.277Z,2.40
2023-03-05T02:35:52.537Z,2.40
2023-03-05T02:38:24.341Z,2.30
2023-03-05T02:40:56.043Z,2.30
2023-03-05T02:43:27.876Z,2.30
2023-03-05T02:45:59.600Z,2.30
2023-03-05T02:48:32.016Z,2.30
2023-03-05T02:51:06.844Z,2.30
2023-03-05T02:53:38.647Z,2.40
2023-03-05T02:56:10.800Z,2.50
2023-03-05T02:58:42.996Z,2.50
2023-03-05T03:01:15.058Z,2.50
2023-03-05T03:03:46.919Z,2.50
2023-03-05T03:06:18.661Z,2.40
2023-03-05T03:08:50.465Z,2.60
2023-03-05T03:11:22.290Z,2.60
2023-03-05T03:13:54.017Z,2.70
2023-03-05T03:16:25.776Z,2.80
2023-03-05T03:18:57.498Z,2.90
2023-03-05T03:21:29.282Z,2.80
2023-03-05T03:24:01.053Z,2.80
2023-03-05T03:26:32.822Z,2.80
2023-03-05T03:29:04.483Z,2.80
2023-03-05T03:31:36.245Z,2.80
2023-03-05T03:34:07.992Z,2.70
2023-03-05T03:36:39.762Z,2.70
2023-03-05T03:39:13.389Z,2.60
2023-03-05T03:41:51.047Z,2.60
2023-03-05T03:44:23.266Z,2.50
2023-03-05T03:46:54.992Z,2.50
2023-03-05T03:49:28.194Z,2.50
2023-03-05T03:52:00.446Z,2.50
2023-03-05T03:54:32.614Z,2.50
2023-03-05T03:57:04.698Z,2.60
2023-03-05T03:59:36.524Z,2.60
2023-03-05T04:02:08.299Z,2.60
2023-03-05T04:04:40.152Z,2.60
2023-03-05T04:07:12.178Z,2.60
2023-03-05T04:09:44.272Z,2.60
2023-03-05T04:12:18.234Z,2.60
2023-03-05T04:14:50.310Z,2.60
2023-03-05T04:17:22.013Z,2.60
2023-03-05T04:19:53.783Z,2.50
2023-03-05T04:22:25.484Z,2.60
2023-03-05T04:24:57.243Z,2.50
2023-03-05T04:27:29.113Z,2.50
2023-03-05T04:30:01.256Z,2.50
2023-03-05T04:32:32.986Z,2.50
2023-03-05T04:35:04.997Z,2.60
2023-03-05T04:37:36.767Z,2.60
2023-03-05T04:40:09.331Z,2.60
2023-03-05T04:42:41.374Z,2.70
2023-03-05T04:45:13.694Z,2.70
2023-03-05T04:47:45.569Z,2.70
2023-03-05T04:50:17.477Z,2.60
2023-03-05T04:52:49.220Z,2.60
2023-03-05T04:55:20.929Z,2.60
2023-03-05T04:57:52.604Z,2.60
2023-03-05T05:00:24.797Z,2.50
2023-03-05T05:02:56.627Z,2.50
2023-03-05T05:05:28.916Z,2.50
2023-03-05T05:08:00.778Z,2.50
2023-03-05T05:10:33.024Z,2.50
2023-03-05T05:13:04.761Z,2.50
2023-03-05T05:15:36.654Z,2.60
2023-03-05T05:18:08.335Z,2.50
2023-03-05T05:20:40.086Z,2.50
2023-03-05T05:23:11.762Z,2.50
2023-03-05T05:25:43.523Z,2.50
2023-03-05T05:28:15.235Z,2.60
2023-03-05T05:30:46.993Z,2.60
2023-03-05T05:33:18.684Z,2.60
2023-03-05T05:35:50.940Z,2.60
2023-03-05T05:38:22.736Z,2.60
2023-03-05T05:40:54.476Z,2.50
2023-03-05T05:43:26.253Z,2.50
2023-03-05T05:46:03.321Z,2.60
2023-03-05T05:48:36.765Z,2.50
2023-03-05T05:51:11.092Z,2.50
2023-03-05T05:53:43.800Z,2.50
2023-03-05T05:56:16.831Z,2.40
2023-03-05T05:58:49.189Z,2.50
2023-03-05T06:01:26.334Z,2.50
2023-03-05T06:03:58.761Z,2.50
2023-03-05T06:06:30.907Z,2.50
2023-03-05T06:09:02.896Z,2.50
2023-03-05T06:11:34.701Z,2.50
2023-03-05T06:14:07.679Z,2.40
2023-03-05T06:16:39.825Z,2.50
2023-03-05T06:19:15.734Z,2.40
2023-03-05T06:21:47.607Z,2.40
2023-03-05T06:24:19.500Z,2.40
2023-03-05T06:26:51.280Z,2.40
2023-03-05T06:29:23.291Z,2.40
2023-03-05T06:31:55.019Z,2.40
2023-03-05T06:34:26.856Z,2.40
2023-03-05T06:36:58.516Z,2.40
2023-03-05T06:39:31.582Z,2.40
2023-03-05T06:42:03.514Z,2.40
2023-03-05T06:44:35.257Z,2.40
2023-03-05T06:47:09.331Z,2.50
2023-03-05T06:49:42.232Z,2.50
2023-03-05T06:52:13.946Z,2.60
2023-03-05T06:54:45.692Z,2.60
2023-03-05T06:57:17.412Z,2.60
2023-03-05T06:59:49.695Z,2.70
2023-03-05T07:02:21.535Z,2.70
2023-03-05T07:04:53.325Z,2.70
2023-03-05T07:07:25.114Z,2.70
2023-03-05T07:09:56.900Z,2.70
2023-03-05T07:12:28.667Z,2.70
2023-03-05T07:15:01.084Z,2.80
2023-03-05T07:17:32.755Z,2.80
2023-03-05T07:20:05.206Z,2.80
2023-03-05T07:22:38.063Z,2.90
2023-03-05T07:25:10.004Z,2.90
2023-03-05T07:27:41.755Z,2.90
2023-03-05T07:30:14.349Z,2.90
2023-03-05T07:32:46.284Z,3.00
2023-03-05T07:35:18.208Z,3.00
2023-03-05T07:37:50.560Z,3.10
2023-03-05T07:40:23.243Z,3.00
2023-03-05T07:42:55.019Z,3.10
2023-03-05T07:45:26.873Z,3.10
2023-03-05T07:47:58.549Z,3.20
2023-03-05T07:50:30.430Z,3.20
2023-03-05T07:53:02.367Z,3.20
2023-03-05T07:55:34.456Z,3.20
2023-03-05T07:58:06.122Z,3.30
2023-03-05T08:00:38.140Z,3.30
2023-03-05T08:03:09.847Z,3.30
2023-03-05T08:05:42.146Z,3.30
2023-03-05T08:08:13.887Z,3.40
2023-03-05T08:10:45.778Z,3.50
2023-03-05T08:13:17.546Z,3.50
2023-03-05T08:15:49.324Z,3.50
2023-03-05T08:18:20.984Z,3.60
2023-03-05T08:20:52.800Z,3.60
2023-03-05T08:23:24.565Z,3.60
2023-03-05T08:25:56.643Z,3.70
2023-03-05T08:28:28.668Z,3.70
2023-03-05T08:31:00.439Z,3.80
2023-03-05T08:33:33.847Z,3.80
2023-03-05T08:36:08.568Z,3.70
2023-03-05T08:38:40.444Z,3.80
2023-03-05T08:41:12.480Z,3.70
2023-03-05T08:43:44.185Z,3.70
2023-03-05T08:46:16.868Z,3.80
2023-03-05T08:48:48.610Z,3.90
2023-03-05T08:51:24.830Z,3.90
2023-03-05T08:53:59.285Z,4.00
2023-03-05T08:56:31.418Z,3.90
2023-03-05T08:59:04.125Z,3.90
2023-03-05T09:01:35.900Z,3.90
2023-03-05T09:04:07.837Z,3.90
2023-03-05T09:06:40.474Z,4.00
2023-03-05T09:09:13.667Z,4.00
2023-03-05T09:11:45.581Z,4.10
2023-03-05T09:14:17.661Z,4.20
2023-03-05T09:16:49.440Z,4.30
2023-03-05T09:19:21.611Z,4.30
2023-03-05T09:21:55.997Z,4.30
2023-03-05T09:24:28.590Z,4.40
2023-03-05T09:27:00.844Z,4.40
2023-03-05T09:29:32.544Z,4.50
2023-03-05T09:32:04.508Z,4.60
2023-03-05T09:34:36.300Z,4.80
2023-03-05T09:37:09.046Z,4.90
2023-03-05T09:39:40.824Z,4.90
2023-03-05T09:42:34.585Z,5.00
2023-03-05T09:45:25.606Z,5.00
2023-03-05T09:48:22.731Z,5.00
2023-03-05T09:51:00.863Z,5.10
2023-03-05T09:53:43.057Z,5.10
2023-03-05T09:56:21.080Z,5.10
2023-03-05T09:59:00.102Z,5.10
2023-03-05T10:01:44.173Z,5.20
2023-03-05T10:04:24.073Z,5.30
2023-03-05T10:07:12.469Z,5.40
2023-03-05T10:10:39.866Z,5.50
2023-03-05T10:13:25.380Z,5.50
2023-03-05T10:16:15.916Z,5.70
2023-03-05T10:19:18.097Z,5.70
2023-03-05T10:22:14.528Z,5.80
2023-03-05T10:24:49.374Z,5.90
2023-03-05T10:27:31.106Z,5.70
2023-03-05T10:30:35.375Z,5.50
2023-03-05T10:33:10.041Z,5.50
2023-03-05T10:35:50.738Z,5.40
2023-03-05T10:39:00.030Z,5.40
2023-03-05T10:42:02.667Z,5.30
2023-03-05T10:44:56.372Z,5.30
2023-03-05T10:48:06.100Z,5.20
2023-03-05T10:50:44.956Z,5.30
2023-03-05T10:53:34.969Z,5.40
2023-03-05T10:56:06.813Z,5.50
2023-03-05T10:58:38.678Z,5.60
2023-03-05T11:01:10.347Z,5.60
2023-03-05T11:03:58.714Z,5.50
2023-03-05T11:06:42.857Z,5.40
2023-03-05T11:09:24.371Z,5.50
2023-03-05T11:12:13.465Z,5.50
2023-03-05T11:15:05.648Z,5.30
2023-03-05T11:17:43.114Z,5.40
2023-03-05T11:20:29.152Z,5.40
2023-03-05T11:23:11.888Z,5.20
2023-03-05T11:26:05.739Z,5.10
2023-03-05T11:28:40.925Z,5.20
2023-03-05T11:31:15.811Z,5.10
2023-03-05T11:34:00.037Z,5.10
2023-03-05T11:36:43.221Z,5.10
2023-03-05T11:39:20.884Z,5.00
2023-03-05T11:41:54.420Z,5.00
2023-03-05T11:44:30.697Z,4.90
2023-03-05T11:47:11.420Z,4.90
2023-03-05T11:49:50.044Z,4.70
2023-03-05T11:52:31.116Z,4.70
2023-03-05T11:55:10.942Z,4.60
2023-03-05T11:58:08.087Z,4.50
2023-03-05T12:00:45.065Z,4.40
2023-03-05T12:03:22.885Z,4.40
2023-03-05T12:06:00.234Z,4.30
2023-03-05T12:08:36.867Z,4.40
2023-03-05T12:11:20.452Z,4.50
2023-03-05T12:13:59.602Z,4.50
2023-03-05T12:16:46.785Z,4.60
2023-03-05T12:19:45.622Z,4.60
2023-03-05T12:22:21.220Z,4.60
2023-03-05T12:24:53.200Z,4.50
2023-03-05T12:27:37.926Z,4.40
2023-03-05T12:30:49.895Z,4.50
2023-03-05T12:33:40.030Z,4.50
2023-03-05T12:36:17.606Z,4.50
2023-03-05T12:38:57.389Z,4.40
2023-03-05T12:41:29.081Z,4.40
2023-03-05T12:44:06.860Z,4.40
2023-03-05T12:46:42.557Z,4.30
2023-03-05T12:49:20.350Z,4.30
2023-03-05T12:51:54.673Z,4.30
2023-03-05T12:54:35.343Z,4.40
2023-03-05T12:57:17.710Z,4.40
2023-03-05T13:00:05.963Z,4.50
2023-03-05T13:02:44.628Z,4.40
2023-03-05T13:05:28.039Z,4.40
2023-03-05T13:08:17.674Z,4.40
2023-03-05T13:10:59.253Z,4.40
2023-03-05T13:13:35.401Z,4.40
2023-03-05T13:16:24.075Z,4.40
2023-03-05T13:18:59.188Z,4.30
2023-03-05T13:21:33.387Z,4.40
2023-03-05T13:24:18.513Z,4.30
2023-03-05T13:26:50.333Z,4.40
2023-03-05T13:29:28.133Z,4.50
2023-03-05T13:32:19.965Z,4.50
2023-03-05T13:34:55.052Z,4.50
2023-03-05T13:37:30.432Z,4.40
2023-03-05T13:40:26.129Z,4.30
2023-03-05T13:43:18.208Z,4.30
2023-03-05T13:45:55.068Z,4.40
2023-03-05T13:48:28.283Z,4.50
2023-03-05T13:51:00.164Z,4.50
2023-03-05T13:53:32.532Z,4.60
2023-03-05T13:56:07.892Z,4.60
2023-03-05T13:58:52.417Z,4.70
2023-03-05T14:01:30.474Z,4.60
2023-03-05T14:04:14.358Z,4.70
2023-03-05T14:06:48.812Z,4.70
2023-03-05T14:09:22.371Z,4.70
2023-03-05T14:12:03.283Z,4.70
2023-03-05T14:14:38.212Z,4.80
2023-03-05T14:17:35.253Z,4.90
2023-03-05T14:20:14.634Z,5.00
2023-03-05T14:22:48.784Z,4.90
2023-03-05T14:25:33.691Z,4.90
2023-03-05T14:28:19.652Z,4.90
2023-03-05T14:30:54.797Z,4.90
2023-03-05T14:33:32.044Z,4.90
2023-03-05T14:36:04.797Z,4.80
2023-03-05T14:38:41.046Z,4.80
2023-03-05T14:41:22.755Z,4.80
2023-03-05T14:43:55.946Z,4.70
2023-03-05T14:46:28.191Z,4.60
2023-03-05T14:48:59.912Z,4.70
2023-03-05T14:51:35.148Z,4.70
2023-03-05T14:54:06.933Z,4.70
2023-03-05T14:56:38.716Z,4.60
2023-03-05T14:59:10.384Z,4.60
2023-03-05T15:01:42.113Z,4.60
2023-03-05T15:04:18.645Z,4.60
2023-03-05T15:06:51.702Z,4.70
2023-03-05T15:09:23.428Z,4.70
2023-03-05T15:11:55.120Z,4.70
2023-03-05T15:14:26.786Z,4.60
2023-03-05T15:16:58.718Z,4.50
2023-03-05T15:19:30.415Z,4.40
2023-03-05T15:22:02.502Z,4.40
2023-03-05T15:24:34.278Z,4.40
2023-03-05T15:27:06.790Z,4.40
2023-03-05T15:29:38.601Z,4.40
2023-03-05T15:32:10.884Z,4.30
2023-03-05T15:34:42.880Z,4.30
2023-03-05T15:37:14.561Z,4.30
2023-03-05T15:39:46.314Z,4.20
2023-03-05T15:42:18.546Z,4.10
2023-03-05T15:44:50.259Z,4.20
2023-03-05T15:47:21.944Z,4.10
2023-03-05T15:49:53.649Z,4.10
2023-03-05T15:52:25.373Z,4.10
2023-03-05T15:54:57.090Z,4.10
2023-03-05T15:57:29.156Z,4.20
2023-03-05T16:00:00.944Z,4.20
2023-03-05T16:02:32.714Z,4.20
2023-03-05T16:05:05.300Z,4.10
2023-03-05T16:07:40.021Z,4.10
2023-03-05T16:10:20.324Z,4.10
2023-03-05T16:12:57.632Z,4.00
2023-03-05T16:15:31.852Z,4.00
2023-03-05T16:18:08.081Z,4.00
2023-03-05T16:20:40.113Z,4.00
2023-03-05T16:23:11.809Z,3.90
2023-03-05T16:25:43.601Z,3.90
2023-03-05T16:28:15.403Z,3.90
2023-03-05T16:30:56.089Z,3.90
2023-03-05T16:33:27.977Z,3.80
2023-03-05T16:36:22.440Z,3.80
2023-03-05T16:38:58.115Z,3.80
2023-03-05T16:41:30.169Z,3.70
2023-03-05T16:44:01.917Z,3.70
2023-03-05T16:46:35.167Z,3.70
2023-03-05T16:49:08.449Z,3.70
2023-03-05T16:51:40.248Z,3.70
2023-03-05T16:54:12.101Z,3.70
2023-03-05T16:56:43.905Z,3.70
2023-03-05T16:59:15.640Z,3.70
2023-03-05T17:01:48.044Z,3.70
2023-03-05T17:04:19.795Z,3.60
2023-03-05T17:06:51.969Z,3.60
2023-03-05T17:09:24.527Z,3.60
2023-03-05T17:11:56.202Z,3.60
2023-03-05T17:14:27.909Z,3.60
2023-03-05T17:17:01.252Z,3.60
2023-03-05T17:19:33.014Z,3.60
2023-03-05T17:22:05.144Z,3.60
2023-03-05T17:24:37.843Z,3.50
2023-03-05T17:27:10.306Z,3.50
2023-03-05T17:29:42.445Z,3.50
2023-03-05T17:32:14.851Z,3.50
2023-03-05T17:34:46.555Z,3.40
2023-03-05T17:37:19.122Z,3.40
2023-03-05T17:39:51.001Z,3.40
2023-03-05T17:42:22.772Z,3.40
2023-03-05T17:44:54.440Z,3.40
2023-03-05T17:47:26.461Z,3.40
2023-03-05T17:49:58.475Z,3.30
2023-03-05T17:52:30.291Z,3.30
2023-03-05T17:55:02.334Z,3.30
2023-03-05T17:57:34.033Z,3.30
2023-03-05T18:00:06.732Z,3.30
2023-03-05T18:02:38.683Z,3.30
2023-03-05T18:05:11.000Z,3.30
2023-03-05T18:07:42.820Z,3.30
2023-03-05T18:10:22.957Z,3.30
2023-03-05T18:12:55.288Z,3.30
2023-03-05T18:15:28.479Z,3.30
2023-03-05T18:18:00.582Z,3.30
2023-03-05T18:20:36.266Z,3.30
2023-03-05T18:23:08.150Z,3.30
2023-03-05T18:25:40.054Z,3.20
2023-03-05T18:28:14.166Z,3.10
2023-03-05T18:30:46.895Z,3.10
2023-03-05T18:33:25.415Z,3.10
2023-03-05T18:35:57.823Z,3.10
2023-03-05T18:38:29.770Z,3.10
2023-03-05T18:41:03.159Z,3.00
2023-03-05T18:43:35.708Z,3.10
2023-03-05T18:46:08.549Z,3.20
2023-03-05T18:48:40.294Z,3.20
2023-03-05T18:51:17.501Z,3.30
2023-03-05T18:53:51.153Z,3.20
2023-03-05T18:56:23.919Z,3.10
2023-03-05T18:58:56.976Z,3.10
2023-03-05T19:01:29.718Z,3.10
2023-03-05T19:04:01.645Z,3.00
2023-03-05T19:06:35.744Z,3.00
2023-03-05T19:09:10.984Z,3.00
2023-03-05T19:11:42.856Z,3.00
2023-03-05T19:14:14.597Z,3.00
2023-03-05T19:16:46.383Z,3.00
2023-03-05T19:19:25.424Z,2.90
2023-03-05T19:21:59.653Z,2.90
2023-03-05T19:24:32.417Z,2.90
2023-03-05T19:27:10.967Z,2.90
2023-03-05T19:29:43.277Z,2.90
2023-03-05T19:32:17.773Z,3.00
2023-03-05T19:34:50.426Z,3.00
2023-03-05T19:37:22.644Z,3.00
2023-03-05T19:39:54.548Z,2.90
2023-03-05T19:42:26.418Z,2.90
2023-03-05T19:45:00.018Z,2.90
2023-03-05T19:47:32.385Z,2.90
2023-03-05T19:50:05.375Z,2.90
2023-03-05T19:52:37.112Z,2.90
2023-03-05T19:55:09.497Z,2.90
2023-03-05T19:57:41.222Z,2.90
2023-03-05T20:00:13.699Z,2.90
2023-03-05T20:02:45.458Z,3.00
2023-03-05T20:05:17.273Z,3.10
2023-03-05T20:07:49.036Z,3.10
2023-03-05T20:10:20.924Z,3.10
2023-03-05T20:12:52.672Z,3.00
2023-03-05T20:15:29.136Z,3.00
2023-03-05T20:18:01.008Z,2.90
2023-03-05T20:20:32.867Z,2.90
2023-03-05T20:23:04.576Z,2.80
2023-03-05T20:25:38.689Z,2.70
2023-03-05T20:28:10.365Z,2.60
2023-03-05T20:30:43.793Z,2.60
2023-03-05T20:33:15.569Z,2.60
2023-03-05T20:35:47.367Z,2.70
2023-03-05T20:38:29.377Z,2.80
2023-03-05T20:41:06.294Z,2.80
2023-03-05T20:43:42.504Z,2.80
2023-03-05T20:46:23.153Z,2.80
2023-03-05T20:48:58.994Z,2.80
2023-03-05T20:51:36.212Z,2.80
2023-03-05T20:54:11.729Z,2.90
2023-03-05T20:56:43.881Z,2.90
2023-03-05T20:59:16.824Z,2.90
2023-03-05T21:01:48.754Z,2.80
2023-03-05T21:04:20.530Z,2.90
2023-03-05T21:06:54.029Z,2.90
2023-03-05T21:09:28.341Z,3.00
2023-03-05T21:12:00.283Z,3.00
2023-03-05T21:14:37.600Z,3.00
2023-03-05T21:17:09.865Z,3.00
2023-03-05T21:19:41.564Z,3.00
2023-03-05T21:22:13.296Z,3.00
2023-03-05T21:25:03.302Z,3.00
2023-03-05T21:27:34.981Z,2.90
2023-03-05T21:30:07.173Z,2.90
2023-03-05T21:32:38.953Z,2.90
2023-03-05T21:35:19.377Z,2.80
2023-03-05T21:37:52.593Z,2.70
2023-03-05T21:40:25.092Z,2.70
2023-03-05T21:42:56.863Z,2.70
2023-03-05T21:45:29.771Z,2.60
2023-03-05T21:48:01.569Z,2.60
2023-03-05T21:50:34.360Z,2.50
2023-03-05T21:53:06.262Z,2.50
2023-03-05T21:55:56.433Z,2.60
2023-03-05T21:58:28.134Z,2.50
2023-03-05T22:01:00.301Z,2.60
2023-03-05T22:03:32.169Z,2.50
2023-03-05T22:06:04.145Z,2.50
2023-03-05T22:08:35.951Z,2.50
2023-03-05T22:11:12.932Z,2.50
2023-03-05T22:13:44.681Z,2.50
2023-03-05T22:16:24.619Z,2.50
2023-03-05T22:18:56.465Z,2.50
2023-03-05T22:21:29.235Z,2.50
2023-03-05T22:24:01.092Z,2.50
2023-03-05T22:26:38.559Z,2.40
2023-03-05T22:29:11.602Z,2.40
2023-03-05T22:31:44.427Z,2.40
2023-03-05T22:34:16.182Z,2.40
2023-03-05T22:36:47.866Z,2.40
2023-03-05T22:39:19.628Z,2.40
2023-03-05T22:41:51.388Z,2.40
2023-03-05T22:44:25.081Z,2.40
2023-03-05T22:46:56.955Z,2.50
2023-03-05T22:49:28.632Z,2.40
2023-03-05T22:52:00.363Z,2.40
2023-03-05T22:54:32.116Z,2.40
2023-03-05T22:57:04.273Z,2.40
2023-03-05T22:59:35.936Z,2.40
2023-03-05T23:02:07.654Z,2.40
2023-03-05T23:04:49.713Z,2.30
2023-03-05T23:07:23.235Z,2.30
2023-03-05T23:10:02.049Z,2.30
2023-03-05T23:12:36.735Z,2.30
2023-03-05T23:15:13.144Z,2.30
2023-03-05T23:17:44.969Z,2.30
2023-03-05T23:20:23.508Z,2.30
2023-03-05T23:22:56.129Z,2.30
2023-03-05T23:25:30.956Z,2.30
2023-03-05T23:28:03.875Z,2.40
2023-03-05T23:30:39.411Z,2.40
2023-03-05T23:33:22.401Z,2.50
2023-03-05T23:36:01.067Z,2.60
2023-03-05T23:38:33.160Z,2.70
2023-03-05T23:41:09.450Z,2.70
2023-03-05T23:43:41.155Z,2.70
2023-03-05T23:46:12.942Z,2.70
2023-03-05T23:48:44.626Z,2.60
2023-03-05T23:51:17.276Z,2.60
2023-03-05T23:53:49.036Z,2.50
2023-03-05T23:56:20.853Z,2.60
2023-03-05T23:58:56.099Z,2.70
